Time;durP1;ratioP1;P1;durP2;ratioP2;P2;SDS_P1;SDS_P2;PMS_P1;PMS_P2;Temp;Humidity;BMP_temperature;BMP_pressure;BME280_temperature;BME280_humidity;BME280_pressure;Samples;Min_cycle;Max_cycle;Signal;HPM_P1;HPM_P2
2022/08/15 00:00:13;;;;;;;12.95;8.82;;;21.60;99.90;;;;;;5036851;28;20041;-70
2022/08/15 00:02:44;;;;;;;13.40;8.65;;;21.70;99.90;;;;;;5036799;28;20103;-70
2022/08/15 00:05:12;;;;;;;14.48;8.65;;;21.60;99.90;;;;;;5036378;28;20125;-71
2022/08/15 00:07:39;;;;;;;11.32;8.88;;;21.60;99.90;;;;;;5036655;28;20116;-71
2022/08/15 00:10:06;;;;;;;11.60;9.25;;;21.50;99.90;;;;;;5036306;28;20388;-70
2022/08/15 00:12:32;;;;;;;12.75;9.57;;;21.50;99.90;;;;;;5036029;28;20049;-70
2022/08/15 00:14:58;;;;;;;15.05;9.55;;;21.50;99.90;;;;;;5036521;28;20099;-70
2022/08/15 00:17:24;;;;;;;16.23;9.85;;;21.40;99.90;;;;;;5036536;28;20414;-70
2022/08/15 00:19:49;;;;;;;12.18;9.73;;;21.40;99.90;;;;;;5019182;28;20049;-70
2022/08/15 00:22:17;;;;;;;13.13;9.75;;;21.40;99.90;;;;;;5036429;28;20045;-70
2022/08/15 00:24:43;;;;;;;12.43;9.85;;;21.40;99.90;;;;;;5036433;28;20041;-70
2022/08/15 00:27:09;;;;;;;12.65;8.70;;;21.40;99.90;;;;;;5034397;28;20045;-70
2022/08/15 00:29:36;;;;;;;15.68;9.73;;;21.30;99.90;;;;;;5035466;28;20049;-70
2022/08/15 00:32:05;;;;;;;13.35;9.45;;;21.30;99.90;;;;;;5035934;28;20052;-70
2022/08/15 00:34:31;;;;;;;13.25;9.48;;;21.30;99.90;;;;;;5036294;28;20056;-70
2022/08/15 00:36:58;;;;;;;10.73;9.27;;;21.30;99.90;;;;;;5035770;28;20467;-70
2022/08/15 00:39:25;;;;;;;14.52;9.60;;;21.30;99.90;;;;;;5035809;28;20037;-70
2022/08/15 00:41:52;;;;;;;14.18;9.65;;;21.20;99.90;;;;;;5035613;28;20037;-70
2022/08/15 00:44:20;;;;;;;11.00;9.05;;;21.30;99.90;;;;;;5017828;28;20042;-70
2022/08/15 00:46:58;;;;;;;15.65;9.40;;;21.30;99.90;;;;;;5035209;28;20343;-71
2022/08/15 00:49:27;;;;;;;13.35;10.05;;;21.20;99.90;;;;;;5035564;28;20041;-70
2022/08/15 00:51:57;;;;;;;12.00;10.60;;;21.30;99.90;;;;;;5035574;28;20139;-70
2022/08/15 00:54:37;;;;;;;16.88;10.07;;;21.30;99.90;;;;;;5018153;28;20102;-70
2022/08/15 00:57:07;;;;;;;11.25;9.52;;;21.40;99.90;;;;;;5035566;28;20472;-71
2022/08/15 00:59:37;;;;;;;10.73;9.63;;;21.30;99.90;;;;;;5035018;28;20053;-70
2022/08/15 01:02:07;;;;;;;10.82;9.32;;;21.30;99.90;;;;;;5035777;28;20094;-71
2022/08/15 01:04:34;;;;;;;19.25;10.52;;;21.30;99.90;;;;;;5035489;28;20053;-71
2022/08/15 01:07:00;;;;;;;14.02;10.65;;;21.30;99.90;;;;;;5035711;28;20033;-70
2022/08/15 01:09:27;;;;;;;13.20;10.68;;;21.30;99.90;;;;;;5035414;28;20056;-70
2022/08/15 01:11:59;;;;;;;12.82;10.32;;;21.30;99.90;;;;;;5035310;28;20037;-70
2022/08/15 01:14:26;;;;;;;13.93;10.37;;;21.30;99.90;;;;;;5034932;28;20114;-69
2022/08/15 01:16:52;;;;;;;11.93;9.40;;;21.20;99.90;;;;;;5018007;28;20085;-70
2022/08/15 01:19:28;;;;;;;12.95;10.15;;;21.20;99.90;;;;;;5035741;28;20085;-70
2022/08/15 01:22:08;;;;;;;15.25;10.95;;;21.20;99.90;;;;;;5034901;28;20053;-70
2022/08/15 01:24:52;;;;;;;17.08;10.30;;;21.20;99.90;;;;;;5035453;28;20044;-69
2022/08/15 01:27:19;;;;;;;14.27;11.65;;;21.20;99.90;;;;;;5035104;28;20064;-70
2022/08/15 01:29:47;;;;;;;15.05;11.38;;;21.10;99.90;;;;;;5034400;28;20107;-70
2022/08/15 01:32:13;;;;;;;15.10;11.32;;;21.10;99.90;;;;;;5034957;28;20469;-70
2022/08/15 01:34:38;;;;;;;14.00;11.45;;;21.20;99.90;;;;;;5033870;28;20049;-70
2022/08/15 01:37:04;;;;;;;16.40;11.60;;;21.10;99.90;;;;;;5034817;28;20049;-70
2022/08/15 01:39:49;;;;;;;15.60;11.20;;;21.10;99.90;;;;;;5018159;28;20080;-70
2022/08/15 01:42:31;;;;;;;14.38;10.57;;;21.10;99.90;;;;;;5017969;28;20049;-71
2022/08/15 01:45:06;;;;;;;13.30;11.38;;;21.10;99.90;;;;;;5034405;28;20081;-71
2022/08/15 01:47:41;;;;;;;16.52;11.10;;;21.10;99.90;;;;;;5034195;28;20081;-70
2022/08/15 01:50:12;;;;;;;13.52;11.25;;;21.20;99.90;;;;;;5034837;28;20092;-71
2022/08/15 01:52:50;;;;;;;15.00;10.90;;;21.10;99.90;;;;;;5034737;28;20037;-71
2022/08/15 01:55:18;;;;;;;19.98;11.40;;;21.20;99.90;;;;;;5034983;28;20140;-71
2022/08/15 01:57:44;;;;;;;13.77;11.25;;;21.20;99.90;;;;;;5034641;28;20099;-70
2022/08/15 02:00:11;;;;;;;14.23;10.65;;;21.20;99.90;;;;;;5034357;28;20421;-71
2022/08/15 02:02:37;;;;;;;14.00;11.15;;;21.20;99.90;;;;;;5034656;28;20099;-70
2022/08/15 02:05:04;;;;;;;13.60;11.20;;;21.30;99.90;;;;;;5034510;28;20057;-71
2022/08/15 02:07:31;;;;;;;15.75;11.45;;;21.20;99.90;;;;;;5034877;28;20042;-70
2022/08/15 02:09:57;;;;;;;14.15;11.13;;;21.30;99.90;;;;;;5017535;28;20397;-70
2022/08/15 02:12:32;;;;;;;16.55;12.43;;;21.30;99.90;;;;;;5034805;28;20041;-70
2022/08/15 02:15:00;;;;;;;16.77;11.60;;;21.20;99.90;;;;;;5034222;28;20114;-70
2022/08/15 02:17:26;;;;;;;18.05;12.25;;;21.20;99.90;;;;;;5034668;28;20098;-70
2022/08/15 02:19:52;;;;;;;17.30;12.50;;;21.20;99.90;;;;;;5034637;28;20041;-70
2022/08/15 02:22:24;;;;;;;13.52;11.40;;;21.20;99.90;;;;;;5034773;28;20123;-71
2022/08/15 02:24:50;;;;;;;15.73;11.60;;;21.20;99.90;;;;;;5034665;28;20080;-71
2022/08/15 02:27:15;;;;;;;14.40;11.90;;;21.20;99.90;;;;;;5034459;28;20045;-70
2022/08/15 02:29:41;;;;;;;14.30;11.88;;;21.20;99.90;;;;;;5033878;28;20049;-70
2022/08/15 02:32:16;;;;;;;15.85;12.43;;;21.20;99.90;;;;;;5034591;28;20053;-69
2022/08/15 02:34:44;;;;;;;16.30;12.32;;;21.10;99.90;;;;;;5037954;28;20038;-70
2022/08/15 02:37:11;;;;;;;16.00;11.90;;;21.10;99.90;;;;;;5038542;28;20049;-71
2022/08/15 02:39:39;;;;;;;15.77;12.60;;;21.10;99.90;;;;;;5038044;28;20045;-71
2022/08/15 02:42:05;;;;;;;20.50;11.77;;;21.10;99.90;;;;;;5038126;28;20080;-71
2022/08/15 02:44:31;;;;;;;13.80;11.73;;;21.10;99.90;;;;;;5037989;28;20038;-71
2022/08/15 02:47:00;;;;;;;17.88;12.55;;;21.10;99.90;;;;;;5038459;28;20060;-70
2022/08/15 02:49:26;;;;;;;18.65;12.55;;;21.10;99.90;;;;;;5038183;28;20042;-70
2022/08/15 02:51:52;;;;;;;22.20;12.52;;;21.00;99.90;;;;;;5037467;28;20492;-70
2022/08/15 02:54:22;;;;;;;15.60;11.40;;;21.00;99.90;;;;;;5038198;28;20052;-71
2022/08/15 02:56:48;;;;;;;15.70;12.00;;;21.10;99.90;;;;;;5038299;28;20103;-71
2022/08/15 02:59:13;;;;;;;18.10;12.88;;;21.10;99.90;;;;;;5037258;28;20034;-71
2022/08/15 03:01:42;;;;;;;14.00;11.70;;;21.10;99.90;;;;;;5037999;28;20507;-70
2022/08/15 03:04:11;;;;;;;12.68;11.35;;;21.00;99.90;;;;;;5037860;28;20061;-70
2022/08/15 03:06:37;;;;;;;16.58;12.38;;;21.00;99.90;;;;;;5037596;28;20049;-70
2022/08/15 03:09:06;;;;;;;15.07;12.00;;;21.10;99.90;;;;;;5037589;28;20049;-70
2022/08/15 03:11:36;;;;;;;13.55;11.77;;;21.00;99.90;;;;;;5037724;28;20073;-70
2022/08/15 03:14:07;;;;;;;16.83;11.65;;;21.00;99.90;;;;;;5004194;28;20049;-71
2022/08/15 03:16:36;;;;;;;14.85;11.60;;;20.90;99.90;;;;;;5037428;28;20048;-70
2022/08/15 03:19:03;;;;;;;14.75;11.73;;;21.00;99.90;;;;;;5037624;28;20045;-71
2022/08/15 03:21:29;;;;;;;18.23;12.00;;;20.90;99.90;;;;;;5037752;28;20049;-71
2022/08/15 03:23:55;;;;;;;15.77;11.30;;;21.00;99.90;;;;;;5037322;28;20056;-70
2022/08/15 03:26:25;;;;;;;16.63;11.57;;;20.80;99.90;;;;;;5037225;28;20049;-71
2022/08/15 03:28:51;;;;;;;17.80;12.82;;;20.90;99.90;;;;;;5036900;28;20047;-70
2022/08/15 03:31:18;;;;;;;15.80;12.25;;;20.80;99.90;;;;;;5036736;28;20436;-71
2022/08/15 03:33:47;;;;;;;21.52;12.27;;;20.70;99.90;;;;;;5037079;28;20362;-70
2022/08/15 03:36:15;;;;;;;21.13;12.93;;;20.70;99.90;;;;;;5037007;28;20045;-71
2022/08/15 03:38:41;;;;;;;15.23;13.57;;;20.60;99.90;;;;;;5020162;28;20052;-70
2022/08/15 03:41:08;;;;;;;15.80;13.25;;;20.60;99.90;;;;;;5037192;28;20049;-70
2022/08/15 03:43:37;;;;;;;23.30;12.07;;;20.50;99.90;;;;;;5036448;28;20041;-70
2022/08/15 03:46:07;;;;;;;18.05;12.68;;;20.50;99.90;;;;;;5037120;28;20102;-71
2022/08/15 03:48:36;;;;;;;14.25;12.73;;;20.40;99.90;;;;;;5037240;28;20053;-70
2022/08/15 03:51:04;;;;;;;15.95;13.13;;;20.30;99.90;;;;;;5019362;28;20045;-71
2022/08/15 03:53:36;;;;;;;21.02;12.90;;;20.40;99.90;;;;;;5037039;28;20128;-70
2022/08/15 03:56:04;;;;;;;18.25;14.27;;;20.30;99.90;;;;;;5036663;28;20099;-70
2022/08/15 03:58:31;;;;;;;18.95;13.65;;;20.30;99.90;;;;;;5018837;28;20152;-70
2022/08/15 04:00:58;;;;;;;15.65;13.95;;;20.20;99.90;;;;;;5036687;28;20385;-70
2022/08/15 04:03:27;;;;;;;17.45;12.90;;;20.20;99.90;;;;;;5036347;28;20484;-70
2022/08/15 04:05:57;;;;;;;18.40;14.25;;;20.20;99.90;;;;;;5036818;28;20057;-69
2022/08/15 04:08:25;;;;;;;17.15;13.30;;;20.20;99.90;;;;;;5036684;28;20048;-70
2022/08/15 04:10:52;;;;;;;15.10;12.07;;;20.20;99.90;;;;;;5036516;28;20037;-70
2022/08/15 04:13:25;;;;;;;16.00;12.63;;;20.20;99.90;;;;;;5036086;28;20049;-70
2022/08/15 04:15:56;;;;;;;15.30;13.30;;;20.10;99.90;;;;;;5040810;28;20071;-67
2022/08/15 04:18:24;;;;;;;16.85;12.35;;;20.10;99.90;;;;;;5036580;28;20038;-71
2022/08/15 04:20:51;;;;;;;16.08;12.20;;;20.00;99.90;;;;;;5035890;28;20041;-71
2022/08/15 04:23:16;;;;;;;16.30;14.40;;;20.10;99.90;;;;;;5051776;28;20045;-73
2022/08/15 04:25:42;;;;;;;14.68;12.95;;;20.00;99.90;;;;;;5053525;28;20048;-72
2022/08/15 04:28:10;;;;;;;17.02;13.75;;;20.00;99.90;;;;;;5035850;28;20049;-72
2022/08/15 04:30:39;;;;;;;19.02;13.77;;;20.00;99.90;;;;;;5035962;28;20103;-72
2022/08/15 04:33:19;;;;;;;16.02;12.95;;;20.00;99.90;;;;;;5035882;28;20381;-72
2022/08/15 04:35:48;;;;;;;15.93;12.82;;;20.00;99.90;;;;;;5035832;28;20521;-72
2022/08/15 04:38:15;;;;;;;14.30;12.70;;;20.00;99.90;;;;;;5035898;28;20041;-68
2022/08/15 04:40:43;;;;;;;15.52;12.93;;;20.10;99.90;;;;;;5021162;28;20077;-74
2022/08/15 04:43:11;;;;;;;14.23;12.27;;;20.10;99.90;;;;;;5019342;28;20679;-69
2022/08/15 04:45:40;;;;;;;16.08;12.65;;;20.20;99.90;;;;;;5044450;28;20080;-71
2022/08/15 04:48:07;;;;;;;16.33;13.18;;;20.20;99.90;;;;;;5043223;28;20079;-69
2022/08/15 04:50:38;;;;;;;18.70;13.65;;;20.30;99.90;;;;;;5046821;28;20033;-69
2022/08/15 04:53:07;;;;;;;17.63;14.02;;;20.30;99.90;;;;;;5035172;28;20136;-69
2022/08/15 04:55:33;;;;;;;16.80;14.10;;;20.40;99.90;;;;;;5034077;28;20327;-69
2022/08/15 04:57:59;;;;;;;19.10;14.05;;;20.30;99.90;;;;;;5035599;28;20045;-69
2022/08/15 05:00:28;;;;;;;19.17;14.52;;;20.50;99.90;;;;;;5035988;28;20037;-70
2022/08/15 05:03:12;;;;;;;18.90;14.50;;;20.50;99.90;;;;;;5034132;28;20480;-69
2022/08/15 05:05:44;;;;;;;20.38;13.88;;;20.50;99.90;;;;;;5034760;28;20049;-69
2022/08/15 05:08:10;;;;;;;18.88;14.23;;;20.50;99.90;;;;;;5035636;28;20366;-69
2022/08/15 05:10:35;;;;;;;18.85;13.80;;;20.60;99.90;;;;;;5020042;28;20044;-69
2022/08/15 05:13:08;;;;;;;15.25;13.65;;;20.60;99.90;;;;;;5035122;28;20144;-69
2022/08/15 05:15:34;;;;;;;;;;;20.70;99.90;;;;;;5035640;28;20353;-69
2022/08/15 05:17:59;;;;;;;20.25;14.10;;;20.70;99.90;;;;;;5034060;28;19921;-69
2022/08/15 05:20:26;;;;;;;18.58;15.82;;;20.90;99.90;;;;;;5034921;28;20049;-69
2022/08/15 05:23:06;;;;;;;22.85;15.52;;;20.90;99.90;;;;;;5027550;28;20401;-68
2022/08/15 05:25:37;;;;;;;19.45;15.88;;;20.90;99.90;;;;;;5031928;28;20037;-68
2022/08/15 05:28:03;;;;;;;20.85;15.52;;;21.00;99.90;;;;;;5020768;28;20117;-69
2022/08/15 05:30:29;;;;;;;18.80;14.40;;;21.10;99.90;;;;;;5014727;28;20155;-69
2022/08/15 05:33:15;;;;;;;15.63;13.52;;;21.10;99.90;;;;;;5018241;28;20107;-68
2022/08/15 05:35:44;;;;;;;17.02;15.10;;;21.20;99.90;;;;;;5034616;28;20060;-68
2022/08/15 05:38:18;;;;;;;17.35;15.18;;;21.30;99.90;;;;;;5034280;28;20140;-70
2022/08/15 05:41:01;;;;;;;23.35;16.20;;;21.40;99.90;;;;;;5034585;28;20053;-68
2022/08/15 05:43:48;;;;;;;20.73;15.57;;;21.50;99.90;;;;;;5014497;28;20046;-68
2022/08/15 05:46:23;;;;;;;17.65;14.75;;;21.50;99.90;;;;;;5014983;28;20046;-68
2022/08/15 05:49:02;;;;;;;19.48;14.50;;;21.60;99.90;;;;;;5016236;28;20049;-69
2022/08/15 05:51:55;;;;;;;19.45;14.48;;;21.60;99.90;;;;;;5015262;28;20046;-67
2022/08/15 05:54:52;;;;;;;18.93;14.97;;;21.70;99.90;;;;;;5014549;28;20073;-69
2022/08/15 05:57:44;;;;;;;16.38;14.05;;;21.80;99.90;;;;;;5027717;28;20033;-68
2022/08/15 06:00:14;;;;;;;18.02;13.75;;;21.80;99.90;;;;;;5034083;28;20111;-68
2022/08/15 06:03:17;;;;;;;17.02;13.00;;;21.80;99.90;;;;;;5044298;28;20034;-68
2022/08/15 06:05:54;;;;;;;23.05;14.50;;;21.80;99.90;;;;;;5012154;28;20593;-68
2022/08/15 06:08:26;;;;;;;19.70;14.20;;;21.90;99.90;;;;;;5019603;28;20561;-69
2022/08/15 06:11:03;;;;;;;16.42;13.85;;;21.80;99.90;;;;;;5018818;28;20084;-68
2022/08/15 06:13:41;;;;;;;16.08;14.32;;;21.80;99.90;;;;;;5034950;28;20037;-68
2022/08/15 06:16:21;;;;;;;18.70;13.77;;;21.90;99.90;;;;;;5038242;28;20132;-67
2022/08/15 06:18:47;;;;;;;19.90;14.02;;;22.00;99.90;;;;;;5038319;28;20057;-68
2022/08/15 06:21:19;;;;;;;16.27;13.95;;;22.10;99.90;;;;;;5038137;28;20409;-68
2022/08/15 06:24:15;;;;;;;15.90;14.15;;;22.10;99.90;;;;;;5023406;28;20112;-67
2022/08/15 06:26:56;;;;;;;16.40;14.55;;;22.20;99.90;;;;;;5018419;28;20469;-68
2022/08/15 06:29:22;;;;;;;15.70;13.98;;;22.20;99.90;;;;;;5021105;28;20058;-67
2022/08/15 06:31:53;;;;;;;17.25;13.43;;;22.20;99.90;;;;;;5037922;28;20068;-68
2022/08/15 06:34:28;;;;;;;19.83;13.75;;;22.30;99.90;;;;;;5038043;28;20080;-67
2022/08/15 06:37:06;;;;;;;17.15;14.35;;;22.40;99.90;;;;;;5038326;28;20045;-68
2022/08/15 06:39:54;;;;;;;16.42;13.00;;;22.60;99.90;;;;;;5025087;28;20062;-70
2022/08/15 06:42:34;;;;;;;21.52;14.43;;;22.80;99.90;;;;;;5018202;28;20052;-68
2022/08/15 06:45:05;;;;;;;21.88;14.60;;;23.00;99.90;;;;;;5028408;28;20041;-69
2022/08/15 06:47:32;;;;;;;21.42;15.82;;;23.10;99.90;;;;;;5037966;28;20041;-68
2022/08/15 06:50:05;;;;;;;17.45;13.43;;;23.20;99.90;;;;;;5037538;28;20060;-69
2022/08/15 06:52:31;;;;;;;16.13;12.63;;;23.30;99.90;;;;;;5037753;28;20060;-68
2022/08/15 06:54:58;;;;;;;14.52;13.02;;;23.40;99.90;;;;;;5037385;28;20049;-68
2022/08/15 06:58:05;;;;;;;17.90;12.40;;;23.60;99.90;;;;;;5037629;28;20125;-70
2022/08/15 07:00:42;;;;;;;16.48;13.50;;;23.90;99.90;;;;;;5037048;28;20061;-68
2022/08/15 07:03:21;;;;;;;17.63;13.15;;;24.40;99.90;;;;;;5037057;28;20038;-69
2022/08/15 07:05:54;;;;;;;14.23;12.32;;;24.70;99.90;;;;;;5037465;28;20049;-70
2022/08/15 07:08:40;;;;;;;14.60;12.43;;;24.60;99.90;;;;;;5037707;28;20071;-69
2022/08/15 07:11:19;;;;;;;15.48;12.60;;;24.30;99.90;;;;;;5037186;28;20041;-69
2022/08/15 07:14:06;;;;;;;14.90;13.30;;;24.20;99.90;;;;;;5037055;28;20095;-69
2022/08/15 07:16:44;;;;;;;17.35;13.63;;;24.00;99.90;;;;;;5036868;28;20063;-69
2022/08/15 07:19:10;;;;;;;18.90;13.35;;;23.90;99.90;;;;;;5018747;28;20422;-70
2022/08/15 07:21:37;;;;;;;19.58;14.38;;;24.00;99.90;;;;;;5037014;28;20474;-70
2022/08/15 07:24:17;;;;;;;15.70;12.40;;;24.20;99.90;;;;;;5037160;28;20048;-69
2022/08/15 07:26:48;;;;;;;17.95;13.65;;;24.20;99.90;;;;;;5037032;28;20125;-69
2022/08/15 07:29:27;;;;;;;19.08;12.35;;;24.20;99.90;;;;;;5036311;28;20095;-70
2022/08/15 07:32:01;;;;;;;14.35;12.05;;;24.10;99.90;;;;;;5036636;28;20123;-69
2022/08/15 07:34:29;;;;;;;14.50;12.13;;;24.20;99.90;;;;;;5036934;28;20307;-69
2022/08/15 07:37:03;;;;;;;15.27;11.55;;;24.20;99.90;;;;;;5037020;28;20053;-69
2022/08/15 07:39:39;;;;;;;14.90;11.60;;;24.20;99.90;;;;;;5036747;28;20048;-69
2022/08/15 07:42:18;;;;;;;13.60;11.30;;;24.20;99.90;;;;;;5036818;28;20050;-70
2022/08/15 07:44:56;;;;;;;12.55;11.10;;;24.50;99.90;;;;;;5036631;28;20120;-69
2022/08/15 07:47:25;;;;;;;17.85;12.13;;;24.60;99.90;;;;;;5036151;28;20045;-69
2022/08/15 07:50:23;;;;;;;14.70;11.68;;;24.70;99.90;;;;;;5036947;28;20361;-69
2022/08/15 07:53:04;;;;;;;13.98;10.80;;;24.80;99.90;;;;;;5035868;28;20053;-70
2022/08/15 07:55:31;;;;;;;13.82;12.32;;;24.80;99.90;;;;;;5036523;28;20127;-69
2022/08/15 07:58:03;;;;;;;17.30;12.30;;;24.90;99.90;;;;;;5036231;28;20053;-68
2022/08/15 08:00:37;;;;;;;14.10;11.10;;;25.30;99.90;;;;;;5036599;28;20076;-68
2022/08/15 08:03:27;;;;;;;12.35;10.23;;;25.60;99.40;;;;;;5035955;28;20064;-68
2022/08/15 08:06:12;;;;;;;11.85;10.27;;;25.80;98.90;;;;;;5036341;28;20350;-68
2022/08/15 08:08:58;;;;;;;13.60;9.23;;;26.10;98.50;;;;;;5036290;28;20055;-70
2022/08/15 08:11:44;;;;;;;13.07;8.30;;;26.40;98.40;;;;;;5036382;28;20084;-69
2022/08/15 08:14:28;;;;;;;13.02;8.15;;;26.70;97.80;;;;;;5036087;28;20412;-69
2022/08/15 08:16:59;;;;;;;10.43;7.60;;;26.80;96.90;;;;;;5036444;28;20053;-68
2022/08/15 08:19:52;;;;;;;8.60;7.70;;;26.90;96.90;;;;;;5035381;28;20052;-69
2022/08/15 08:22:38;;;;;;;11.43;6.72;;;27.20;95.50;;;;;;5036213;28;20053;-69
2022/08/15 08:25:09;;;;;;;12.43;7.85;;;27.60;95.70;;;;;;5035685;28;20068;-71
2022/08/15 08:28:06;;;;;;;9.55;6.68;;;27.90;95.40;;;;;;5036838;28;20065;-70
2022/08/15 08:30:55;;;;;;;12.85;7.55;;;27.80;95.10;;;;;;5035456;28;20524;-70
2022/08/15 08:33:50;;;;;;;9.80;7.03;;;27.60;94.30;;;;;;5035930;28;20167;-70
2022/08/15 08:37:02;;;;;;;10.43;6.20;;;27.50;94.00;;;;;;5035542;28;20045;-70
2022/08/15 08:41:24;;;;;;;10.57;6.70;;;27.40;94.90;;;;;;5013026;28;20069;-69
2022/08/15 08:42:55;;;;;;;10.10;6.70;;;27.50;95.50;;;;;;5015444;28;20041;-71
2022/08/15 08:45:41;;;;;;;8.93;6.55;;;27.60;95.00;;;;;;5035443;28;20052;-69
2022/08/15 08:48:19;;;;;;;9.77;6.50;;;27.50;94.60;;;;;;5025006;28;20050;-69
2022/08/15 08:50:59;;;;;;;18.20;6.57;;;27.90;95.20;;;;;;5015706;28;20053;-72
2022/08/15 08:53:42;;;;;;;7.57;6.03;;;28.80;94.90;;;;;;5027313;28;20041;-71
2022/08/15 08:56:13;;;;;;;;;;;29.80;93.30;;;;;;5035929;28;20049;-70
2022/08/15 08:59:25;;;;;;;7.63;5.80;;;30.30;92.20;;;;;;5034776;28;19924;-71
2022/08/15 09:01:58;;;;;;;9.52;5.57;;;30.40;91.10;;;;;;5033875;28;20143;-70
2022/08/15 09:04:38;;;;;;;6.75;5.40;;;30.10;91.90;;;;;;5055150;28;20107;-69
2022/08/15 09:07:07;;;;;;;6.95;4.72;;;29.80;92.00;;;;;;5035676;28;20442;-69
2022/08/15 09:09:39;;;;;;;8.07;4.60;;;29.60;91.90;;;;;;5034924;28;20041;-70
2022/08/15 09:15:06;;;;;;;6.35;5.13;;;29.20;92.00;;;;;;5041950;28;20044;-69
2022/08/15 09:17:35;;;;;;;9.20;5.13;;;29.10;91.40;;;;;;5035127;28;20053;-69
2022/08/15 09:20:31;;;;;;;6.35;4.65;;;28.90;91.90;;;;;;5034706;28;20045;-69
2022/08/15 09:22:56;;;;;;;7.88;4.90;;;28.90;91.30;;;;;;5032789;28;20069;-68
2022/08/15 09:25:24;;;;;;;7.78;5.57;;;29.00;91.90;;;;;;5034790;28;20063;-70
2022/08/15 09:28:10;;;;;;;7.60;4.75;;;29.20;91.70;;;;;;5034524;28;20464;-69
2022/08/15 09:30:38;;;;;;;6.53;4.97;;;29.30;91.80;;;;;;5034294;28;20076;-69
2022/08/15 09:33:18;;;;;;;10.40;5.50;;;29.30;91.90;;;;;;5034753;28;20091;-69
2022/08/15 09:36:02;;;;;;;6.65;4.80;;;29.30;92.30;;;;;;5034677;28;20041;-69
2022/08/15 09:38:41;;;;;;;7.25;5.00;;;29.50;92.20;;;;;;5035045;28;20041;-70
2022/08/15 09:41:21;;;;;;;6.32;4.85;;;30.00;91.60;;;;;;5017875;28;20068;-69
2022/08/15 09:43:47;;;;;;;8.35;4.95;;;30.40;90.70;;;;;;5033710;28;20049;-69
2022/08/15 09:46:35;;;;;;;6.65;5.10;;;30.60;91.00;;;;;;5034395;28;20124;-69
2022/08/15 09:49:19;;;;;;;7.15;4.80;;;31.20;90.90;;;;;;5034536;28;20091;-69
2022/08/15 09:52:18;;;;;;;10.43;5.43;;;31.60;90.50;;;;;;5034275;28;20050;-69
2022/08/15 09:54:54;;;;;;;9.68;4.90;;;31.80;89.30;;;;;;5014501;28;20046;-69
2022/08/15 09:57:20;;;;;;;6.75;5.28;;;31.70;89.40;;;;;;5014870;28;20052;-70
2022/08/15 09:59:55;;;;;;;7.47;5.07;;;31.60;89.90;;;;;;5027621;28;20462;-69
2022/08/15 10:02:27;;;;;;;9.73;4.50;;;31.50;89.50;;;;;;5033948;28;20088;-69
2022/08/15 10:04:55;;;;;;;8.43;5.18;;;31.50;90.00;;;;;;5034518;28;20092;-69
2022/08/15 10:07:32;;;;;;;8.05;4.90;;;31.80;90.30;;;;;;5034209;28;20339;-70
2022/08/15 10:10:00;;;;;;;8.52;5.38;;;32.00;90.10;;;;;;5034608;28;20046;-69
2022/08/15 10:12:27;;;;;;;12.50;6.15;;;32.20;89.20;;;;;;5037935;28;20465;-69
2022/08/15 10:14:53;;;;;;;12.00;4.85;;;32.20;90.00;;;;;;5033593;28;20075;-69
2022/08/15 10:17:38;;;;;;;6.05;4.68;;;32.20;89.90;;;;;;4999215;28;20053;-70
2022/08/15 10:20:19;;;;;;;6.57;4.80;;;32.10;87.20;;;;;;5034618;28;20064;-71
2022/08/15 10:22:59;;;;;;;7.72;4.68;;;32.00;89.00;;;;;;5035947;28;20053;-70
2022/08/15 10:25:30;;;;;;;9.77;5.72;;;31.90;89.30;;;;;;5016716;28;20068;-70
2022/08/15 10:28:19;;;;;;;9.25;4.90;;;31.60;89.10;;;;;;5034294;28;20075;-71
2022/08/15 10:31:02;;;;;;;11.85;5.22;;;31.40;89.80;;;;;;5033961;28;20064;-71
2022/08/15 10:33:31;;;;;;;8.23;5.15;;;31.50;89.60;;;;;;5033919;28;20049;-71
2022/08/15 10:36:36;;;;;;;14.55;5.60;;;31.60;90.10;;;;;;5033796;28;20049;-71
2022/08/15 10:39:31;;;;;;;9.32;5.30;;;31.80;90.10;;;;;;5032577;28;20132;-70
2022/08/15 10:42:23;;;;;;;9.48;5.53;;;31.80;89.70;;;;;;5034971;28;20071;-69
2022/08/15 10:45:10;;;;;;;8.77;5.50;;;32.00;90.10;;;;;;5054001;28;20092;-69
2022/08/15 10:47:54;;;;;;;6.20;5.03;;;31.90;89.60;;;;;;5053900;28;20061;-69
2022/08/15 10:50:41;;;;;;;10.13;5.35;;;31.90;89.80;;;;;;5053953;28;20049;-70
2022/08/15 10:53:25;;;;;;;12.43;6.18;;;32.00;89.40;;;;;;5053989;28;20098;-70
2022/08/15 10:55:52;;;;;;;10.70;6.25;;;32.10;89.10;;;;;;5057457;28;20041;-71
2022/08/15 10:58:23;;;;;;;10.45;6.05;;;32.00;89.40;;;;;;5037612;28;20076;-70
2022/08/15 11:01:03;;;;;;;10.25;5.80;;;31.70;89.00;;;;;;5038474;28;20112;-69
2022/08/15 11:03:50;;;;;;;8.75;6.15;;;31.50;89.40;;;;;;5037254;28;20374;-69
2022/08/15 11:06:19;;;;;;;9.15;6.80;;;31.40;89.30;;;;;;5020054;28;20053;-70
2022/08/15 11:09:05;;;;;;;12.95;6.28;;;31.20;89.70;;;;;;5041152;28;20083;-70
2022/08/15 11:11:32;;;;;;;11.95;7.72;;;31.20;89.90;;;;;;5050088;28;20069;-70
2022/08/15 11:14:07;;;;;;;10.57;7.72;;;31.00;90.10;;;;;;5037130;28;20053;-69
2022/08/15 11:16:37;;;;;;;10.88;8.10;;;30.80;90.10;;;;;;5037306;28;20072;-69
2022/08/15 11:19:18;;;;;;;11.95;8.10;;;30.50;90.30;;;;;;5036583;28;20526;-71
2022/08/15 11:21:49;;;;;;;10.80;7.38;;;30.30;90.30;;;;;;5036999;28;20049;-69
2022/08/15 11:24:27;;;;;;;13.52;7.90;;;30.10;90.60;;;;;;5037281;28;20041;-69
2022/08/15 11:27:24;;;;;;;16.35;8.85;;;30.00;91.40;;;;;;5037217;28;20065;-69
2022/08/15 11:29:56;;;;;;;26.05;11.18;;;29.80;93.20;;;;;;5036493;28;20041;-68
2022/08/15 11:32:33;;;;;;;12.45;9.10;;;29.40;93.70;;;;;;5019816;28;20049;-69
2022/08/15 11:35:02;;;;;;;15.85;9.82;;;29.00;94.70;;;;;;5036790;28;20041;-69
2022/08/15 11:37:38;;;;;;;13.95;10.40;;;28.80;94.70;;;;;;5037214;28;20049;-69
2022/08/15 11:40:35;;;;;;;12.32;9.55;;;28.60;96.30;;;;;;5036675;28;20473;-69
2022/08/15 11:43:03;;;;;;;13.38;10.30;;;28.50;97.90;;;;;;5036823;28;20409;-69
2022/08/15 11:45:35;;;;;;;14.43;10.57;;;28.50;97.40;;;;;;5036954;28;20507;-70
2022/08/15 11:48:08;;;;;;;24.35;11.50;;;28.50;97.70;;;;;;5036728;28;20045;-71
2022/08/15 11:50:40;;;;;;;12.73;10.30;;;28.50;97.90;;;;;;5027412;28;20038;-70
2022/08/15 11:53:11;;;;;;;15.15;10.57;;;28.60;98.30;;;;;;5016987;28;20057;-70
2022/08/15 11:55:38;;;;;;;15.25;10.63;;;28.60;98.50;;;;;;5016143;28;20133;-69
2022/08/15 11:58:28;;;;;;;14.73;10.88;;;28.70;98.50;;;;;;5016467;28;20581;-69
2022/08/15 12:00:57;;;;;;;13.80;10.82;;;28.70;98.30;;;;;;5015784;28;20042;-68
2022/08/15 12:03:35;;;;;;;11.95;10.35;;;28.60;97.50;;;;;;5018748;28;20061;-71
2022/08/15 12:06:12;;;;;;;12.13;10.70;;;28.60;97.90;;;;;;5032655;28;20049;-71
2022/08/15 12:08:41;;;;;;;14.65;9.70;;;28.50;97.50;;;;;;5035414;28;20041;-70
2022/08/15 12:11:13;;;;;;;13.30;9.98;;;28.50;97.60;;;;;;5036183;28;20064;-71
2022/08/15 12:13:40;;;;;;;11.70;9.90;;;28.40;97.40;;;;;;5035642;28;20041;-72
2022/08/15 12:16:09;;;;;;;12.73;8.55;;;28.40;97.90;;;;;;5035686;28;20054;-71
2022/08/15 12:18:36;;;;;;;9.45;8.38;;;28.30;97.30;;;;;;5035739;28;20048;-69
2022/08/15 12:21:04;;;;;;;10.30;7.18;;;28.20;97.80;;;;;;5035674;28;20071;-69
2022/08/15 12:23:36;;;;;;;8.07;7.07;;;28.20;97.50;;;;;;5035489;28;20453;-68
2022/08/15 12:26:04;;;;;;;9.40;6.50;;;28.00;97.40;;;;;;5035497;28;20414;-69
2022/08/15 12:28:31;;;;;;;7.72;6.38;;;28.00;97.30;;;;;;5035706;28;20045;-68
2022/08/15 12:31:20;;;;;;;7.95;5.80;;;28.00;97.10;;;;;;5035730;28;20061;-70
2022/08/15 12:33:47;;;;;;;6.78;5.90;;;28.00;96.80;;;;;;5035546;28;20045;-69
2022/08/15 12:36:13;;;;;;;11.70;6.22;;;28.00;96.70;;;;;;5018146;28;20481;-70
2022/08/15 12:38:40;;;;;;;9.13;6.15;;;28.10;96.60;;;;;;5035349;28;20107;-69
2022/08/15 12:41:08;;;;;;;7.78;5.72;;;28.10;96.50;;;;;;5035211;28;20077;-69
2022/08/15 12:43:35;;;;;;;7.53;5.93;;;28.20;96.90;;;;;;5035645;28;20048;-69
2022/08/15 12:46:01;;;;;;;8.35;5.55;;;28.20;96.30;;;;;;5035685;28;20041;-69
2022/08/15 12:48:29;;;;;;;7.38;5.80;;;28.30;96.20;;;;;;5035095;28;20055;-69
2022/08/15 12:50:56;;;;;;;8.65;6.13;;;28.30;96.80;;;;;;5035405;28;20053;-68
2022/08/15 12:53:22;;;;;;;7.50;5.68;;;28.40;96.40;;;;;;5035322;28;20080;-68
2022/08/15 12:55:49;;;;;;;9.40;6.25;;;28.50;96.00;;;;;;5035442;28;20398;-69
2022/08/15 12:58:18;;;;;;;9.68;7.78;;;28.70;95.90;;;;;;5035473;28;20116;-70
2022/08/15 13:00:47;;;;;;;10.93;6.97;;;28.80;95.50;;;;;;5035078;28;20038;-69
2022/08/15 13:03:19;;;;;;;11.88;7.28;;;29.00;95.80;;;;;;5034949;28;20076;-69
2022/08/15 13:05:47;;;;;;;10.15;6.45;;;29.10;95.60;;;;;;5035274;28;20053;-68
2022/08/15 13:08:12;;;;;;;8.23;6.55;;;29.20;95.10;;;;;;5034909;28;20087;-69